LIMZ/CUF METAR and TAF weather

Enter ICAO airport designator
Station Type Date Time Source
LIMZ METAR 2019/06/18 19:50 UTC NOAA

LIMZ 181950Z VRB01KT 9999 SCT045 22/16 Q1014


Station Type Date Time Source
LIMZ Decoded METAR 2019/06/18 19:50 UTC NOAA

Cuneo / Levaldigi, Italy (LIMZ) 44-32-47N 007-37-20E
Jun 18, 2019 - 03:50 PM EDT / 2019.06.18 1950 UTC
Wind: Variable at 1 MPH (1 KT):0
Visibility: greater than 7 mile(s):0
Sky conditions: partly cloudy
Temperature: 71 F (22 C)
Dew Point: 60 F (16 C)
Relative Humidity: 68%
Pressure (altimeter): 29.94 in. Hg (1014 hPa)
ob: LIMZ 181950Z VRB01KT 9999 SCT045 22/16 Q1014
cycle: 20

Station Type Date Time Source
LIMZ TAF 2019/06/18 18:57 UTC NOAA

TAF
AMD TAF
AMD LIMZ 181952Z 1818/1918 CNL

Example: see airport list